TVY weather

Bolinder Field Tooele Valley Airport
Tooele, Utah, United States

Public forecast

Using degrees Fahrenheit for public forecast. Weather courtesy of forecast.io.

Current aviation weather report (METAR) for Bolinder Field Tooele Valley Airport

Retrieved 2020/08/05 07:35 UTC (14 minutes ago):

KTVY 050735Z AUTO 12003KT 10SM CLR 16/05 A2998 RMK AO2

Closest aviation forecast (TAF) to Bolinder Field Tooele Valley Airport

Closest forecast is Salt Lake City International Airport, 20.0 nm (37.0 km) ENE. Retrieved 2020/08/05 06:22 UTC (1 hour ago):

TAF KSLC 050520Z 0506/0612 21005KT P6SM FEW180 FM051800 18008KT P6SM FEW150 FM060000 33007KT P6SM FEW120